sensor_id;sensor_type;location;lat;lon;timestamp;temperature;humidity
29849;DHT22;16728;50.832;5.590;2023-07-09T00:01:50;23.90;99.90
29849;DHT22;16728;50.832;5.590;2023-07-09T00:04:52;23.70;99.90
29849;DHT22;16728;50.832;5.590;2023-07-09T00:07:54;23.70;99.90
29849;DHT22;16728;50.832;5.590;2023-07-09T00:10:57;23.60;99.90
29849;DHT22;16728;50.832;5.590;2023-07-09T00:13:59;23.60;99.90
29849;DHT22;16728;50.832;5.590;2023-07-09T00:17:02;23.50;99.90
29849;DHT22;16728;50.832;5.590;2023-07-09T00:20:04;23.60;99.90
29849;DHT22;16728;50.832;5.590;2023-07-09T00:23:07;23.70;99.90
29849;DHT22;16728;50.832;5.590;2023-07-09T00:26:11;23.70;99.90
29849;DHT22;16728;50.832;5.590;2023-07-09T00:29:15;23.80;99.90
29849;DHT22;16728;50.832;5.590;2023-07-09T00:32:19;23.80;99.90
29849;DHT22;16728;50.832;5.590;2023-07-09T00:35:23;23.80;99.90
29849;DHT22;16728;50.832;5.590;2023-07-09T00:38:26;23.70;99.90
29849;DHT22;16728;50.832;5.590;2023-07-09T00:41:29;23.70;99.90
29849;DHT22;16728;50.832;5.590;2023-07-09T00:44:33;23.80;99.90
29849;DHT22;16728;50.832;5.590;2023-07-09T00:47:50;23.80;99.90
29849;DHT22;16728;50.832;5.590;2023-07-09T00:50:54;23.80;99.90
29849;DHT22;16728;50.832;5.590;2023-07-09T00:54:06;23.70;99.90
29849;DHT22;16728;50.832;5.590;2023-07-09T00:57:14;23.70;99.90
29849;DHT22;16728;50.832;5.590;2023-07-09T01:00:19;23.70;99.90
29849;DHT22;16728;50.832;5.590;2023-07-09T01:03:44;23.70;99.90
29849;DHT22;16728;50.832;5.590;2023-07-09T01:06:54;23.60;99.90
29849;DHT22;16728;50.832;5.590;2023-07-09T01:09:57;23.60;99.90
29849;DHT22;16728;50.832;5.590;2023-07-09T01:12:59;23.70;99.90
29849;DHT22;16728;50.832;5.590;2023-07-09T01:16:01;23.70;99.90
29849;DHT22;16728;50.832;5.590;2023-07-09T01:19:05;23.70;99.90
29849;DHT22;16728;50.832;5.590;2023-07-09T01:22:07;23.60;99.90
29849;DHT22;16728;50.832;5.590;2023-07-09T01:25:09;23.60;99.90
29849;DHT22;16728;50.832;5.590;2023-07-09T01:28:13;23.60;99.90
29849;DHT22;16728;50.832;5.590;2023-07-09T01:31:19;23.60;99.90
29849;DHT22;16728;50.832;5.590;2023-07-09T01:34:22;23.60;99.90
29849;DHT22;16728;50.832;5.590;2023-07-09T01:37:26;23.60;99.90
29849;DHT22;16728;50.832;5.590;2023-07-09T01:40:32;23.50;99.90
29849;DHT22;16728;50.832;5.590;2023-07-09T01:43:37;23.40;99.90
29849;DHT22;16728;50.832;5.590;2023-07-09T01:46:39;23.40;99.90
29849;DHT22;16728;50.832;5.590;2023-07-09T01:49:41;23.40;99.90
29849;DHT22;16728;50.832;5.590;2023-07-09T01:52:44;23.40;99.90
29849;DHT22;16728;50.832;5.590;2023-07-09T01:55:47;23.40;99.90
29849;DHT22;16728;50.832;5.590;2023-07-09T01:58:49;23.30;99.90
29849;DHT22;16728;50.832;5.590;2023-07-09T02:01:51;23.30;99.90
29849;DHT22;16728;50.832;5.590;2023-07-09T02:04:59;23.30;99.90
29849;DHT22;16728;50.832;5.590;2023-07-09T02:08:03;23.30;99.90
29849;DHT22;16728;50.832;5.590;2023-07-09T02:11:05;23.40;99.90
29849;DHT22;16728;50.832;5.590;2023-07-09T02:14:07;23.40;99.90
29849;DHT22;16728;50.832;5.590;2023-07-09T02:17:10;23.30;99.90
29849;DHT22;16728;50.832;5.590;2023-07-09T02:20:12;23.30;99.90
29849;DHT22;16728;50.832;5.590;2023-07-09T02:23:14;23.30;99.90
29849;DHT22;16728;50.832;5.590;2023-07-09T02:26:18;23.30;99.90
29849;DHT22;16728;50.832;5.590;2023-07-09T02:29:21;23.30;99.90
29849;DHT22;16728;50.832;5.590;2023-07-09T02:32:26;23.30;99.90
29849;DHT22;16728;50.832;5.590;2023-07-09T02:35:28;23.20;99.90
29849;DHT22;16728;50.832;5.590;2023-07-09T02:38:30;23.10;99.90
29849;DHT22;16728;50.832;5.590;2023-07-09T02:41:32;23.10;99.90
29849;DHT22;16728;50.832;5.590;2023-07-09T02:44:34;23.10;99.90
29849;DHT22;16728;50.832;5.590;2023-07-09T02:47:36;23.00;99.90
29849;DHT22;16728;50.832;5.590;2023-07-09T02:50:38;22.90;99.90
29849;DHT22;16728;50.832;5.590;2023-07-09T02:53:40;23.00;99.90
29849;DHT22;16728;50.832;5.590;2023-07-09T02:56:42;23.00;99.90
29849;DHT22;16728;50.832;5.590;2023-07-09T02:59:44;23.00;99.90
29849;DHT22;16728;50.832;5.590;2023-07-09T03:02:46;23.10;99.90
29849;DHT22;16728;50.832;5.590;2023-07-09T03:05:48;23.00;99.90
29849;DHT22;16728;50.832;5.590;2023-07-09T03:08:51;23.00;99.90
29849;DHT22;16728;50.832;5.590;2023-07-09T03:11:53;23.00;99.90
29849;DHT22;16728;50.832;5.590;2023-07-09T03:14:55;23.00;99.90
29849;DHT22;16728;50.832;5.590;2023-07-09T03:17:58;22.80;99.90
29849;DHT22;16728;50.832;5.590;2023-07-09T03:21:00;22.60;99.90
29849;DHT22;16728;50.832;5.590;2023-07-09T03:24:02;22.70;99.90
29849;DHT22;16728;50.832;5.590;2023-07-09T03:27:05;22.70;99.90
29849;DHT22;16728;50.832;5.590;2023-07-09T03:30:07;22.60;99.90
29849;DHT22;16728;50.832;5.590;2023-07-09T03:33:10;22.60;99.90
29849;DHT22;16728;50.832;5.590;2023-07-09T03:36:12;22.60;99.90
29849;DHT22;16728;50.832;5.590;2023-07-09T03:39:14;22.60;99.90
29849;DHT22;16728;50.832;5.590;2023-07-09T03:42:16;22.50;99.90
29849;DHT22;16728;50.832;5.590;2023-07-09T03:45:18;22.30;99.90
29849;DHT22;16728;50.832;5.590;2023-07-09T03:48:21;22.20;99.90
29849;DHT22;16728;50.832;5.590;2023-07-09T03:51:23;22.10;99.90
29849;DHT22;16728;50.832;5.590;2023-07-09T03:54:25;22.30;99.90
29849;DHT22;16728;50.832;5.590;2023-07-09T03:57:28;22.40;99.90
29849;DHT22;16728;50.832;5.590;2023-07-09T04:00:30;22.30;99.90
29849;DHT22;16728;50.832;5.590;2023-07-09T04:03:32;22.30;99.90
29849;DHT22;16728;50.832;5.590;2023-07-09T04:06:34;22.30;99.90
29849;DHT22;16728;50.832;5.590;2023-07-09T04:09:36;22.30;99.90
29849;DHT22;16728;50.832;5.590;2023-07-09T04:12:38;22.30;99.90
29849;DHT22;16728;50.832;5.590;2023-07-09T04:15:40;22.20;99.90
29849;DHT22;16728;50.832;5.590;2023-07-09T04:18:43;22.20;99.90
29849;DHT22;16728;50.832;5.590;2023-07-09T04:21:45;22.30;99.90
29849;DHT22;16728;50.832;5.590;2023-07-09T04:24:47;22.30;99.90
29849;DHT22;16728;50.832;5.590;2023-07-09T04:27:49;22.40;99.90
29849;DHT22;16728;50.832;5.590;2023-07-09T04:30:52;22.30;99.90
29849;DHT22;16728;50.832;5.590;2023-07-09T04:33:54;22.20;99.90
29849;DHT22;16728;50.832;5.590;2023-07-09T04:36:56;22.30;99.90
29849;DHT22;16728;50.832;5.590;2023-07-09T04:39:58;22.30;99.90
29849;DHT22;16728;50.832;5.590;2023-07-09T04:43:00;22.40;99.90
29849;DHT22;16728;50.832;5.590;2023-07-09T04:46:01;22.50;99.90
29849;DHT22;16728;50.832;5.590;2023-07-09T04:49:04;22.40;99.90
29849;DHT22;16728;50.832;5.590;2023-07-09T04:52:06;22.40;99.90
29849;DHT22;16728;50.832;5.590;2023-07-09T04:55:09;22.60;99.90
29849;DHT22;16728;50.832;5.590;2023-07-09T04:58:12;22.60;99.90
29849;DHT22;16728;50.832;5.590;2023-07-09T05:01:13;22.40;99.90
29849;DHT22;16728;50.832;5.590;2023-07-09T05:04:15;22.50;99.90
29849;DHT22;16728;50.832;5.590;2023-07-09T05:07:20;22.50;99.90
29849;DHT22;16728;50.832;5.590;2023-07-09T05:10:22;22.40;99.90
29849;DHT22;16728;50.832;5.590;2023-07-09T05:13:24;22.40;99.90
29849;DHT22;16728;50.832;5.590;2023-07-09T05:16:27;22.60;99.90
29849;DHT22;16728;50.832;5.590;2023-07-09T05:19:30;22.50;99.90
29849;DHT22;16728;50.832;5.590;2023-07-09T05:22:32;22.60;99.90
29849;DHT22;16728;50.832;5.590;2023-07-09T05:25:34;22.70;99.90
29849;DHT22;16728;50.832;5.590;2023-07-09T05:28:36;22.70;99.90
29849;DHT22;16728;50.832;5.590;2023-07-09T05:31:38;22.90;99.90
29849;DHT22;16728;50.832;5.590;2023-07-09T05:34:40;23.00;99.90
29849;DHT22;16728;50.832;5.590;2023-07-09T05:37:41;23.10;99.90
29849;DHT22;16728;50.832;5.590;2023-07-09T05:40:43;23.10;99.90
29849;DHT22;16728;50.832;5.590;2023-07-09T05:43:45;23.30;99.90
29849;DHT22;16728;50.832;5.590;2023-07-09T05:46:47;23.40;99.90
29849;DHT22;16728;50.832;5.590;2023-07-09T05:49:50;23.50;99.90
29849;DHT22;16728;50.832;5.590;2023-07-09T05:52:52;23.60;99.90
29849;DHT22;16728;50.832;5.590;2023-07-09T05:55:55;23.70;99.90
29849;DHT22;16728;50.832;5.590;2023-07-09T05:58:57;23.80;99.90
29849;DHT22;16728;50.832;5.590;2023-07-09T06:01:59;23.90;99.90
29849;DHT22;16728;50.832;5.590;2023-07-09T06:05:03;23.90;99.90
29849;DHT22;16728;50.832;5.590;2023-07-09T06:08:05;24.10;99.90
29849;DHT22;16728;50.832;5.590;2023-07-09T06:11:07;24.10;99.90
29849;DHT22;16728;50.832;5.590;2023-07-09T06:14:09;24.20;99.90
29849;DHT22;16728;50.832;5.590;2023-07-09T06:17:12;24.30;99.90
29849;DHT22;16728;50.832;5.590;2023-07-09T06:20:15;24.40;99.90
29849;DHT22;16728;50.832;5.590;2023-07-09T06:23:18;24.50;99.90
29849;DHT22;16728;50.832;5.590;2023-07-09T06:26:20;24.50;99.90
29849;DHT22;16728;50.832;5.590;2023-07-09T06:29:23;24.60;99.90
29849;DHT22;16728;50.832;5.590;2023-07-09T06:32:26;24.70;99.90
29849;DHT22;16728;50.832;5.590;2023-07-09T06:35:28;24.80;99.90
29849;DHT22;16728;50.832;5.590;2023-07-09T06:38:30;24.80;99.90
29849;DHT22;16728;50.832;5.590;2023-07-09T06:41:32;24.90;99.90
29849;DHT22;16728;50.832;5.590;2023-07-09T06:44:40;25.20;99.90
29849;DHT22;16728;50.832;5.590;2023-07-09T06:47:42;25.30;99.90
29849;DHT22;16728;50.832;5.590;2023-07-09T06:50:44;25.40;99.90
29849;DHT22;16728;50.832;5.590;2023-07-09T06:53:46;25.60;99.90
29849;DHT22;16728;50.832;5.590;2023-07-09T06:56:51;25.80;99.90
29849;DHT22;16728;50.832;5.590;2023-07-09T06:59:53;25.80;99.90
29849;DHT22;16728;50.832;5.590;2023-07-09T07:02:56;26.00;99.90
29849;DHT22;16728;50.832;5.590;2023-07-09T07:05:58;26.10;99.90
29849;DHT22;16728;50.832;5.590;2023-07-09T07:09:00;26.20;99.90
29849;DHT22;16728;50.832;5.590;2023-07-09T07:12:02;26.30;99.90
29849;DHT22;16728;50.832;5.590;2023-07-09T07:15:05;26.40;99.90
29849;DHT22;16728;50.832;5.590;2023-07-09T07:18:07;26.50;99.90
29849;DHT22;16728;50.832;5.590;2023-07-09T07:21:09;26.70;99.90
29849;DHT22;16728;50.832;5.590;2023-07-09T07:24:12;26.90;99.90
29849;DHT22;16728;50.832;5.590;2023-07-09T07:27:14;26.90;99.90
29849;DHT22;16728;50.832;5.590;2023-07-09T07:30:16;26.90;99.90
29849;DHT22;16728;50.832;5.590;2023-07-09T07:33:18;27.00;99.90
29849;DHT22;16728;50.832;5.590;2023-07-09T07:36:20;27.20;99.90
29849;DHT22;16728;50.832;5.590;2023-07-09T07:39:32;27.40;99.90
29849;DHT22;16728;50.832;5.590;2023-07-09T07:42:34;27.50;99.90
29849;DHT22;16728;50.832;5.590;2023-07-09T07:45:40;27.60;99.90
29849;DHT22;16728;50.832;5.590;2023-07-09T07:48:42;27.70;99.90
29849;DHT22;16728;50.832;5.590;2023-07-09T07:51:44;27.80;99.90
29849;DHT22;16728;50.832;5.590;2023-07-09T07:54:46;27.90;99.90
29849;DHT22;16728;50.832;5.590;2023-07-09T07:57:48;28.00;99.90
29849;DHT22;16728;50.832;5.590;2023-07-09T08:00:54;28.10;99.90
29849;DHT22;16728;50.832;5.590;2023-07-09T08:03:56;28.20;99.90
29849;DHT22;16728;50.832;5.590;2023-07-09T08:06:59;28.30;99.90
29849;DHT22;16728;50.832;5.590;2023-07-09T08:10:01;28.40;99.90
29849;DHT22;16728;50.832;5.590;2023-07-09T08:13:03;28.40;99.90
29849;DHT22;16728;50.832;5.590;2023-07-09T08:16:07;28.40;99.90
29849;DHT22;16728;50.832;5.590;2023-07-09T08:19:10;28.50;99.90
29849;DHT22;16728;50.832;5.590;2023-07-09T08:22:13;28.60;99.90
29849;DHT22;16728;50.832;5.590;2023-07-09T08:25:15;28.70;99.90
29849;DHT22;16728;50.832;5.590;2023-07-09T08:28:17;28.90;99.90
29849;DHT22;16728;50.832;5.590;2023-07-09T08:31:19;28.90;99.90
29849;DHT22;16728;50.832;5.590;2023-07-09T08:34:21;28.90;99.90
29849;DHT22;16728;50.832;5.590;2023-07-09T08:37:23;29.10;99.90
29849;DHT22;16728;50.832;5.590;2023-07-09T08:40:25;29.10;99.90
29849;DHT22;16728;50.832;5.590;2023-07-09T08:50:19;29.20;99.90
29849;DHT22;16728;50.832;5.590;2023-07-09T08:53:33;29.30;99.90
29849;DHT22;16728;50.832;5.590;2023-07-09T08:56:36;29.30;99.90
29849;DHT22;16728;50.832;5.590;2023-07-09T08:59:38;29.30;99.90
29849;DHT22;16728;50.832;5.590;2023-07-09T09:02:51;29.20;99.90
29849;DHT22;16728;50.832;5.590;2023-07-09T09:06:01;29.20;99.90
29849;DHT22;16728;50.832;5.590;2023-07-09T09:09:33;29.30;99.90
29849;DHT22;16728;50.832;5.590;2023-07-09T09:13:02;29.40;99.90
29849;DHT22;16728;50.832;5.590;2023-07-09T09:16:14;29.40;99.80
29849;DHT22;16728;50.832;5.590;2023-07-09T09:19:34;29.40;99.80
29849;DHT22;16728;50.832;5.590;2023-07-09T09:22:59;29.50;99.90
29849;DHT22;16728;50.832;5.590;2023-07-09T09:26:14;29.60;99.90
29849;DHT22;16728;50.832;5.590;2023-07-09T09:29:20;29.60;99.60
29849;DHT22;16728;50.832;5.590;2023-07-09T09:32:41;29.60;99.70
29849;DHT22;16728;50.832;5.590;2023-07-09T09:35:47;29.70;99.70
29849;DHT22;16728;50.832;5.590;2023-07-09T09:38:52;29.70;99.40
29849;DHT22;16728;50.832;5.590;2023-07-09T09:41:58;29.80;99.40
29849;DHT22;16728;50.832;5.590;2023-07-09T09:45:01;29.80;99.50
29849;DHT22;16728;50.832;5.590;2023-07-09T09:48:36;29.80;99.60
29849;DHT22;16728;50.832;5.590;2023-07-09T09:51:40;29.80;99.50
29849;DHT22;16728;50.832;5.590;2023-07-09T09:54:52;29.90;99.90
29849;DHT22;16728;50.832;5.590;2023-07-09T09:57:58;29.90;99.90
29849;DHT22;16728;50.832;5.590;2023-07-09T10:01:16;30.00;99.90
29849;DHT22;16728;50.832;5.590;2023-07-09T10:04:19;30.00;99.90
29849;DHT22;16728;50.832;5.590;2023-07-09T10:07:31;30.10;99.90
29849;DHT22;16728;50.832;5.590;2023-07-09T10:10:35;30.10;99.60
29849;DHT22;16728;50.832;5.590;2023-07-09T10:13:40;30.20;99.00
29849;DHT22;16728;50.832;5.590;2023-07-09T10:16:49;30.30;99.00
29849;DHT22;16728;50.832;5.590;2023-07-09T10:23:32;30.30;98.80
29849;DHT22;16728;50.832;5.590;2023-07-09T10:26:40;30.50;98.50
29849;DHT22;16728;50.832;5.590;2023-07-09T10:40:03;30.40;98.50
29849;DHT22;16728;50.832;5.590;2023-07-09T10:44:06;30.40;98.50
29849;DHT22;16728;50.832;5.590;2023-07-09T10:46:54;30.40;98.90
29849;DHT22;16728;50.832;5.590;2023-07-09T10:50:03;30.50;98.50
29849;DHT22;16728;50.832;5.590;2023-07-09T10:53:35;30.50;98.40
29849;DHT22;16728;50.832;5.590;2023-07-09T10:56:40;30.60;98.60
29849;DHT22;16728;50.832;5.590;2023-07-09T10:59:43;30.60;98.30
29849;DHT22;16728;50.832;5.590;2023-07-09T11:02:55;30.60;98.70
29849;DHT22;16728;50.832;5.590;2023-07-09T11:05:58;30.70;98.40
29849;DHT22;16728;50.832;5.590;2023-07-09T11:09:02;30.70;98.10
29849;DHT22;16728;50.832;5.590;2023-07-09T11:12:15;30.70;98.30
29849;DHT22;16728;50.832;5.590;2023-07-09T11:15:29;30.80;98.10
29849;DHT22;16728;50.832;5.590;2023-07-09T11:18:35;30.80;97.90
29849;DHT22;16728;50.832;5.590;2023-07-09T11:21:56;30.80;98.80
29849;DHT22;16728;50.832;5.590;2023-07-09T11:25:13;30.90;98.20
29849;DHT22;16728;50.832;5.590;2023-07-09T11:28:16;30.90;98.10
29849;DHT22;16728;50.832;5.590;2023-07-09T11:31:35;30.90;98.20
29849;DHT22;16728;50.832;5.590;2023-07-09T11:34:48;30.90;98.40
29849;DHT22;16728;50.832;5.590;2023-07-09T11:37:51;31.00;99.60
29849;DHT22;16728;50.832;5.590;2023-07-09T11:40:55;30.90;99.80
29849;DHT22;16728;50.832;5.590;2023-07-09T11:44:29;31.00;99.90
29849;DHT22;16728;50.832;5.590;2023-07-09T11:47:45;31.00;99.50
29849;DHT22;16728;50.832;5.590;2023-07-09T11:50:50;31.00;98.90
29849;DHT22;16728;50.832;5.590;2023-07-09T11:53:54;31.00;98.60
29849;DHT22;16728;50.832;5.590;2023-07-09T11:56:56;30.90;98.50
29849;DHT22;16728;50.832;5.590;2023-07-09T11:59:59;30.90;98.80
29849;DHT22;16728;50.832;5.590;2023-07-09T12:03:10;30.80;99.30
29849;DHT22;16728;50.832;5.590;2023-07-09T12:06:24;30.70;99.90
29849;DHT22;16728;50.832;5.590;2023-07-09T12:09:33;30.70;99.90
29849;DHT22;16728;50.832;5.590;2023-07-09T12:12:42;30.60;99.90
29849;DHT22;16728;50.832;5.590;2023-07-09T12:15:44;30.40;99.90
29849;DHT22;16728;50.832;5.590;2023-07-09T12:18:46;30.20;99.90
29849;DHT22;16728;50.832;5.590;2023-07-09T12:21:51;30.10;99.90
29849;DHT22;16728;50.832;5.590;2023-07-09T12:24:55;30.00;99.90
29849;DHT22;16728;50.832;5.590;2023-07-09T12:28:01;29.80;99.90
29849;DHT22;16728;50.832;5.590;2023-07-09T12:31:09;29.60;99.90
29849;DHT22;16728;50.832;5.590;2023-07-09T12:34:13;29.30;99.90
29849;DHT22;16728;50.832;5.590;2023-07-09T12:37:16;28.30;99.90
29849;DHT22;16728;50.832;5.590;2023-07-09T12:40:22;27.80;99.90
29849;DHT22;16728;50.832;5.590;2023-07-09T12:43:31;27.00;99.90
29849;DHT22;16728;50.832;5.590;2023-07-09T12:46:34;26.50;99.90
29849;DHT22;16728;50.832;5.590;2023-07-09T12:49:41;26.00;99.90
29849;DHT22;16728;50.832;5.590;2023-07-09T12:52:48;25.80;99.90
29849;DHT22;16728;50.832;5.590;2023-07-09T12:55:50;25.80;99.90
29849;DHT22;16728;50.832;5.590;2023-07-09T12:59:25;25.80;99.90
29849;DHT22;16728;50.832;5.590;2023-07-09T13:02:28;25.90;99.90
29849;DHT22;16728;50.832;5.590;2023-07-09T13:05:31;26.10;99.90
29849;DHT22;16728;50.832;5.590;2023-07-09T13:11:45;26.30;99.90
29849;DHT22;16728;50.832;5.590;2023-07-09T13:14:55;26.40;99.90
29849;DHT22;16728;50.832;5.590;2023-07-09T13:18:03;26.40;99.90
29849;DHT22;16728;50.832;5.590;2023-07-09T13:21:15;26.40;99.90
29849;DHT22;16728;50.832;5.590;2023-07-09T13:24:30;26.30;99.90
29849;DHT22;16728;50.832;5.590;2023-07-09T13:27:32;26.30;99.90
29849;DHT22;16728;50.832;5.590;2023-07-09T13:30:34;26.10;99.90
29849;DHT22;16728;50.832;5.590;2023-07-09T13:33:36;26.10;99.90
29849;DHT22;16728;50.832;5.590;2023-07-09T13:36:40;26.00;99.90
29849;DHT22;16728;50.832;5.590;2023-07-09T13:39:43;25.80;99.90
29849;DHT22;16728;50.832;5.590;2023-07-09T13:42:47;25.70;99.90
29849;DHT22;16728;50.832;5.590;2023-07-09T13:45:50;25.60;99.90
29849;DHT22;16728;50.832;5.590;2023-07-09T13:48:53;25.60;99.90
29849;DHT22;16728;50.832;5.590;2023-07-09T13:51:58;25.50;99.90
29849;DHT22;16728;50.832;5.590;2023-07-09T13:55:00;25.40;99.90
29849;DHT22;16728;50.832;5.590;2023-07-09T13:58:02;25.40;99.90
29849;DHT22;16728;50.832;5.590;2023-07-09T14:01:16;25.30;99.90
29849;DHT22;16728;50.832;5.590;2023-07-09T14:04:20;25.40;99.90
29849;DHT22;16728;50.832;5.590;2023-07-09T14:07:41;25.40;99.90
29849;DHT22;16728;50.832;5.590;2023-07-09T14:10:44;25.50;99.90
29849;DHT22;16728;50.832;5.590;2023-07-09T14:13:47;25.50;99.90
29849;DHT22;16728;50.832;5.590;2023-07-09T14:16:50;25.50;99.90
29849;DHT22;16728;50.832;5.590;2023-07-09T14:19:53;25.50;99.90
29849;DHT22;16728;50.832;5.590;2023-07-09T14:22:55;25.60;99.90
29849;DHT22;16728;50.832;5.590;2023-07-09T14:25:57;25.60;99.90
29849;DHT22;16728;50.832;5.590;2023-07-09T14:28:59;25.50;99.90
29849;DHT22;16728;50.832;5.590;2023-07-09T14:32:01;25.50;99.90
29849;DHT22;16728;50.832;5.590;2023-07-09T14:35:14;25.50;99.90
29849;DHT22;16728;50.832;5.590;2023-07-09T14:38:22;25.40;99.90
29849;DHT22;16728;50.832;5.590;2023-07-09T14:41:26;25.40;99.90
29849;DHT22;16728;50.832;5.590;2023-07-09T14:44:30;25.50;99.90
29849;DHT22;16728;50.832;5.590;2023-07-09T14:47:33;25.50;99.90
29849;DHT22;16728;50.832;5.590;2023-07-09T14:50:35;25.70;99.90
29849;DHT22;16728;50.832;5.590;2023-07-09T14:53:37;25.80;99.90
29849;DHT22;16728;50.832;5.590;2023-07-09T14:56:39;25.90;99.90
29849;DHT22;16728;50.832;5.590;2023-07-09T14:59:41;25.70;99.90
29849;DHT22;16728;50.832;5.590;2023-07-09T15:02:43;25.60;99.90
29849;DHT22;16728;50.832;5.590;2023-07-09T15:05:46;25.80;99.90
29849;DHT22;16728;50.832;5.590;2023-07-09T15:08:48;25.80;99.90
29849;DHT22;16728;50.832;5.590;2023-07-09T15:11:56;26.00;99.90
29849;DHT22;16728;50.832;5.590;2023-07-09T15:15:16;25.90;99.90
29849;DHT22;16728;50.832;5.590;2023-07-09T15:18:20;26.00;99.90
29849;DHT22;16728;50.832;5.590;2023-07-09T15:21:21;26.00;99.90
29849;DHT22;16728;50.832;5.590;2023-07-09T15:24:32;26.10;99.90
29849;DHT22;16728;50.832;5.590;2023-07-09T15:27:34;26.10;99.90
29849;DHT22;16728;50.832;5.590;2023-07-09T15:30:36;26.00;99.90
29849;DHT22;16728;50.832;5.590;2023-07-09T15:33:39;26.00;99.90
29849;DHT22;16728;50.832;5.590;2023-07-09T15:36:46;26.00;99.90
29849;DHT22;16728;50.832;5.590;2023-07-09T15:39:50;26.00;99.90
29849;DHT22;16728;50.832;5.590;2023-07-09T15:42:53;25.90;99.90
29849;DHT22;16728;50.832;5.590;2023-07-09T15:45:57;25.80;99.90
29849;DHT22;16728;50.832;5.590;2023-07-09T15:49:00;25.80;99.90
29849;DHT22;16728;50.832;5.590;2023-07-09T15:52:03;25.90;99.90
29849;DHT22;16728;50.832;5.590;2023-07-09T15:55:07;25.90;99.90
29849;DHT22;16728;50.832;5.590;2023-07-09T15:58:41;25.90;99.90
29849;DHT22;16728;50.832;5.590;2023-07-09T16:01:43;25.90;99.90
29849;DHT22;16728;50.832;5.590;2023-07-09T16:04:45;26.00;99.90
29849;DHT22;16728;50.832;5.590;2023-07-09T16:07:47;26.00;99.90
29849;DHT22;16728;50.832;5.590;2023-07-09T16:10:49;26.10;99.90
29849;DHT22;16728;50.832;5.590;2023-07-09T16:13:53;26.10;99.90
29849;DHT22;16728;50.832;5.590;2023-07-09T16:16:57;26.20;99.90
29849;DHT22;16728;50.832;5.590;2023-07-09T16:20:00;26.30;99.90
29849;DHT22;16728;50.832;5.590;2023-07-09T16:23:02;26.40;99.90
29849;DHT22;16728;50.832;5.590;2023-07-09T16:26:04;26.40;99.90
29849;DHT22;16728;50.832;5.590;2023-07-09T16:29:18;26.50;99.90
29849;DHT22;16728;50.832;5.590;2023-07-09T16:32:20;26.50;99.90
29849;DHT22;16728;50.832;5.590;2023-07-09T16:35:24;26.60;99.90
29849;DHT22;16728;50.832;5.590;2023-07-09T16:38:27;26.60;99.90
29849;DHT22;16728;50.832;5.590;2023-07-09T16:41:29;26.60;99.90
29849;DHT22;16728;50.832;5.590;2023-07-09T16:44:31;26.60;99.90
29849;DHT22;16728;50.832;5.590;2023-07-09T16:47:34;26.70;99.90
29849;DHT22;16728;50.832;5.590;2023-07-09T16:50:36;26.70;99.90
29849;DHT22;16728;50.832;5.590;2023-07-09T16:53:38;26.80;99.90
29849;DHT22;16728;50.832;5.590;2023-07-09T16:56:40;26.80;99.90
29849;DHT22;16728;50.832;5.590;2023-07-09T16:59:43;26.80;99.90
29849;DHT22;16728;50.832;5.590;2023-07-09T17:02:45;26.90;99.90
29849;DHT22;16728;50.832;5.590;2023-07-09T17:05:47;26.90;99.90
29849;DHT22;16728;50.832;5.590;2023-07-09T17:08:49;27.00;99.90
29849;DHT22;16728;50.832;5.590;2023-07-09T17:11:59;27.10;99.90
29849;DHT22;16728;50.832;5.590;2023-07-09T17:15:25;27.10;99.90
29849;DHT22;16728;50.832;5.590;2023-07-09T17:18:30;26.90;99.90
29849;DHT22;16728;50.832;5.590;2023-07-09T17:21:34;26.80;99.90
29849;DHT22;16728;50.832;5.590;2023-07-09T17:24:37;26.80;99.90
29849;DHT22;16728;50.832;5.590;2023-07-09T17:27:39;26.80;99.90
29849;DHT22;16728;50.832;5.590;2023-07-09T17:30:42;26.70;99.90
29849;DHT22;16728;50.832;5.590;2023-07-09T17:33:44;26.70;99.90
29849;DHT22;16728;50.832;5.590;2023-07-09T17:36:46;26.70;99.90
29849;DHT22;16728;50.832;5.590;2023-07-09T17:39:48;26.70;99.90
29849;DHT22;16728;50.832;5.590;2023-07-09T17:42:50;26.60;99.90
29849;DHT22;16728;50.832;5.590;2023-07-09T17:45:53;26.70;99.90
29849;DHT22;16728;50.832;5.590;2023-07-09T17:48:55;26.60;99.90
29849;DHT22;16728;50.832;5.590;2023-07-09T17:51:58;26.60;99.90
29849;DHT22;16728;50.832;5.590;2023-07-09T17:55:00;26.60;99.90
29849;DHT22;16728;50.832;5.590;2023-07-09T17:58:02;26.50;99.90
29849;DHT22;16728;50.832;5.590;2023-07-09T18:01:05;26.60;99.90
29849;DHT22;16728;50.832;5.590;2023-07-09T18:04:14;26.50;99.90
29849;DHT22;16728;50.832;5.590;2023-07-09T18:07:37;26.50;99.90
29849;DHT22;16728;50.832;5.590;2023-07-09T18:10:41;26.50;99.90
29849;DHT22;16728;50.832;5.590;2023-07-09T18:13:44;26.50;99.90
29849;DHT22;16728;50.832;5.590;2023-07-09T18:16:46;26.40;99.90
29849;DHT22;16728;50.832;5.590;2023-07-09T18:19:49;26.30;99.90
29849;DHT22;16728;50.832;5.590;2023-07-09T18:22:52;26.30;99.90
29849;DHT22;16728;50.832;5.590;2023-07-09T18:25:54;26.30;99.90
29849;DHT22;16728;50.832;5.590;2023-07-09T18:28:56;26.30;99.90
29849;DHT22;16728;50.832;5.590;2023-07-09T18:32:01;26.20;99.90
29849;DHT22;16728;50.832;5.590;2023-07-09T18:35:17;26.20;99.90
29849;DHT22;16728;50.832;5.590;2023-07-09T18:38:20;26.20;99.90
29849;DHT22;16728;50.832;5.590;2023-07-09T18:41:22;26.10;99.90
29849;DHT22;16728;50.832;5.590;2023-07-09T18:44:24;26.10;99.90
29849;DHT22;16728;50.832;5.590;2023-07-09T18:47:26;26.10;99.90
29849;DHT22;16728;50.832;5.590;2023-07-09T18:50:30;26.00;99.90
29849;DHT22;16728;50.832;5.590;2023-07-09T18:53:32;26.00;99.90
29849;DHT22;16728;50.832;5.590;2023-07-09T18:56:36;26.00;99.90
29849;DHT22;16728;50.832;5.590;2023-07-09T18:59:39;26.00;99.90
29849;DHT22;16728;50.832;5.590;2023-07-09T19:02:43;26.00;99.90
29849;DHT22;16728;50.832;5.590;2023-07-09T19:05:47;25.80;99.90
29849;DHT22;16728;50.832;5.590;2023-07-09T19:08:49;25.80;99.90
29849;DHT22;16728;50.832;5.590;2023-07-09T19:11:51;25.60;99.90
29849;DHT22;16728;50.832;5.590;2023-07-09T19:14:56;25.60;99.90
29849;DHT22;16728;50.832;5.590;2023-07-09T19:17:58;25.50;99.90
29849;DHT22;16728;50.832;5.590;2023-07-09T19:21:00;25.40;99.90
29849;DHT22;16728;50.832;5.590;2023-07-09T19:24:04;25.40;99.90
29849;DHT22;16728;50.832;5.590;2023-07-09T19:27:06;25.30;99.90
29849;DHT22;16728;50.832;5.590;2023-07-09T19:30:09;25.20;99.90
29849;DHT22;16728;50.832;5.590;2023-07-09T19:33:38;25.20;99.90
29849;DHT22;16728;50.832;5.590;2023-07-09T19:36:41;25.10;99.90
29849;DHT22;16728;50.832;5.590;2023-07-09T19:39:43;25.10;99.90
29849;DHT22;16728;50.832;5.590;2023-07-09T19:42:47;25.10;99.90
29849;DHT22;16728;50.832;5.590;2023-07-09T19:45:49;24.90;99.90
29849;DHT22;16728;50.832;5.590;2023-07-09T19:48:51;24.90;99.90
29849;DHT22;16728;50.832;5.590;2023-07-09T19:51:54;24.90;99.90